sensor_id;sensor_type;location;lat;lon;timestamp;P1;durP1;ratioP1;P2;durP2;ratioP2
4754;SDS011;2391;47.212;7.542;2024-03-23T00:53:36;2.53;;;2.10;;
4754;SDS011;2391;47.212;7.542;2024-03-23T00:56:02;2.50;;;2.30;;
4754;SDS011;2391;47.212;7.542;2024-03-23T00:58:29;2.70;;;2.20;;
4754;SDS011;2391;47.212;7.542;2024-03-23T01:00:55;2.87;;;2.67;;
4754;SDS011;2391;47.212;7.542;2024-03-23T01:03:20;9.00;;;2.50;;
4754;SDS011;2391;47.212;7.542;2024-03-23T01:05:46;3.20;;;2.50;;
4754;SDS011;2391;47.212;7.542;2024-03-23T01:08:14;2.90;;;2.70;;
4754;SDS011;2391;47.212;7.542;2024-03-23T01:10:40;4.23;;;3.00;;
4754;SDS011;2391;47.212;7.542;2024-03-23T01:13:06;6.20;;;2.37;;
4754;SDS011;2391;47.212;7.542;2024-03-23T01:15:32;3.67;;;2.73;;
4754;SDS011;2391;47.212;7.542;2024-03-23T01:17:57;3.47;;;2.53;;
4754;SDS011;2391;47.212;7.542;2024-03-23T01:20:23;2.10;;;2.00;;
4754;SDS011;2391;47.212;7.542;2024-03-23T01:22:49;2.77;;;2.57;;
4754;SDS011;2391;47.212;7.542;2024-03-23T01:25:14;6.17;;;2.70;;
4754;SDS011;2391;47.212;7.542;2024-03-23T01:27:40;3.97;;;2.20;;
4754;SDS011;2391;47.212;7.542;2024-03-23T01:30:06;7.13;;;2.83;;
4754;SDS011;2391;47.212;7.542;2024-03-23T01:32:33;4.00;;;2.77;;
4754;SDS011;2391;47.212;7.542;2024-03-23T01:34:58;4.70;;;3.17;;
4754;SDS011;2391;47.212;7.542;2024-03-23T01:37:24;5.40;;;2.63;;
4754;SDS011;2391;47.212;7.542;2024-03-23T01:39:50;3.80;;;2.73;;
4754;SDS011;2391;47.212;7.542;2024-03-23T01:42:16;2.80;;;2.60;;
4754;SDS011;2391;47.212;7.542;2024-03-23T01:44:42;2.63;;;2.43;;
4754;SDS011;2391;47.212;7.542;2024-03-23T01:47:08;2.97;;;2.73;;
4754;SDS011;2391;47.212;7.542;2024-03-23T01:49:34;4.90;;;2.13;;
4754;SDS011;2391;47.212;7.542;2024-03-23T01:52:01;4.63;;;2.70;;
4754;SDS011;2391;47.212;7.542;2024-03-23T01:54:27;3.97;;;2.50;;
4754;SDS011;2391;47.212;7.542;2024-03-23T01:56:55;3.63;;;2.50;;
4754;SDS011;2391;47.212;7.542;2024-03-23T01:59:21;3.00;;;2.30;;
4754;SDS011;2391;47.212;7.542;2024-03-23T02:01:47;3.87;;;2.47;;
4754;SDS011;2391;47.212;7.542;2024-03-23T02:04:13;3.00;;;2.00;;
4754;SDS011;2391;47.212;7.542;2024-03-23T02:06:39;5.93;;;4.37;;
4754;SDS011;2391;47.212;7.542;2024-03-23T02:09:05;2.67;;;2.20;;
4754;SDS011;2391;47.212;7.542;2024-03-23T02:11:31;2.50;;;2.30;;
4754;SDS011;2391;47.212;7.542;2024-03-23T02:13:56;2.77;;;2.57;;
4754;SDS011;2391;47.212;7.542;2024-03-23T02:16:22;9.97;;;2.60;;
4754;SDS011;2391;47.212;7.542;2024-03-23T02:18:48;2.73;;;2.53;;
4754;SDS011;2391;47.212;7.542;2024-03-23T02:21:15;4.43;;;2.20;;
4754;SDS011;2391;47.212;7.542;2024-03-23T02:23:41;2.40;;;1.90;;
4754;SDS011;2391;47.212;7.542;2024-03-23T02:26:06;2.37;;;2.17;;
4754;SDS011;2391;47.212;7.542;2024-03-23T02:28:32;2.40;;;2.30;;
4754;SDS011;2391;47.212;7.542;2024-03-23T02:30:58;3.83;;;2.00;;
4754;SDS011;2391;47.212;7.542;2024-03-23T02:33:26;2.53;;;2.10;;
4754;SDS011;2391;47.212;7.542;2024-03-23T02:35:55;2.43;;;2.33;;
4754;SDS011;2391;47.212;7.542;2024-03-23T02:38:21;3.30;;;1.80;;
4754;SDS011;2391;47.212;7.542;2024-03-23T02:40:47;4.47;;;2.27;;
4754;SDS011;2391;47.212;7.542;2024-03-23T02:43:13;4.20;;;3.07;;
4754;SDS011;2391;47.212;7.542;2024-03-23T02:45:38;2.73;;;2.30;;
4754;SDS011;2391;47.212;7.542;2024-03-23T02:48:04;3.80;;;2.57;;
4754;SDS011;2391;47.212;7.542;2024-03-23T02:50:30;2.23;;;2.03;;
4754;SDS011;2391;47.212;7.542;2024-03-23T02:52:56;3.57;;;2.90;;
4754;SDS011;2391;47.212;7.542;2024-03-23T02:55:22;4.50;;;2.67;;
4754;SDS011;2391;47.212;7.542;2024-03-23T02:57:48;6.03;;;2.87;;
4754;SDS011;2391;47.212;7.542;2024-03-23T03:00:14;3.10;;;2.60;;
4754;SDS011;2391;47.212;7.542;2024-03-23T03:02:40;5.47;;;3.20;;
4754;SDS011;2391;47.212;7.542;2024-03-23T03:05:06;9.10;;;2.53;;
4754;SDS011;2391;47.212;7.542;2024-03-23T03:07:32;3.83;;;2.97;;
4754;SDS011;2391;47.212;7.542;2024-03-23T03:09:58;2.70;;;2.50;;
4754;SDS011;2391;47.212;7.542;2024-03-23T03:12:23;2.37;;;2.17;;
4754;SDS011;2391;47.212;7.542;2024-03-23T03:14:49;2.83;;;2.57;;
4754;SDS011;2391;47.212;7.542;2024-03-23T03:17:15;3.43;;;2.57;;
4754;SDS011;2391;47.212;7.542;2024-03-23T03:19:41;2.80;;;2.60;;
4754;SDS011;2391;47.212;7.542;2024-03-23T03:22:07;2.60;;;2.40;;
4754;SDS011;2391;47.212;7.542;2024-03-23T03:24:32;2.67;;;2.47;;
4754;SDS011;2391;47.212;7.542;2024-03-23T03:26:58;3.40;;;2.27;;
4754;SDS011;2391;47.212;7.542;2024-03-23T03:29:24;3.73;;;2.50;;
4754;SDS011;2391;47.212;7.542;2024-03-23T03:31:50;4.20;;;2.53;;
4754;SDS011;2391;47.212;7.542;2024-03-23T03:34:15;3.93;;;2.00;;
4754;SDS011;2391;47.212;7.542;2024-03-23T03:36:41;2.40;;;2.20;;
4754;SDS011;2391;47.212;7.542;2024-03-23T03:39:07;3.13;;;2.20;;
4754;SDS011;2391;47.212;7.542;2024-03-23T03:41:33;2.03;;;1.83;;
4754;SDS011;2391;47.212;7.542;2024-03-23T03:43:58;2.30;;;2.10;;
4754;SDS011;2391;47.212;7.542;2024-03-23T03:46:27;2.30;;;2.10;;
4754;SDS011;2391;47.212;7.542;2024-03-23T03:48:54;3.33;;;2.03;;
4754;SDS011;2391;47.212;7.542;2024-03-23T03:51:20;2.00;;;1.90;;
4754;SDS011;2391;47.212;7.542;2024-03-23T03:53:46;4.27;;;1.63;;
4754;SDS011;2391;47.212;7.542;2024-03-23T03:56:12;3.80;;;1.93;;
4754;SDS011;2391;47.212;7.542;2024-03-23T03:58:37;2.10;;;1.90;;
4754;SDS011;2391;47.212;7.542;2024-03-23T04:01:03;4.20;;;1.87;;
4754;SDS011;2391;47.212;7.542;2024-03-23T04:03:29;5.17;;;2.20;;
4754;SDS011;2391;47.212;7.542;2024-03-23T04:05:55;5.63;;;2.07;;
4754;SDS011;2391;47.212;7.542;2024-03-23T04:08:21;3.50;;;2.23;;
4754;SDS011;2391;47.212;7.542;2024-03-23T04:10:47;2.10;;;2.00;;
4754;SDS011;2391;47.212;7.542;2024-03-23T04:13:13;2.50;;;2.30;;
4754;SDS011;2391;47.212;7.542;2024-03-23T04:15:39;2.50;;;2.30;;
4754;SDS011;2391;47.212;7.542;2024-03-23T04:18:05;3.20;;;2.27;;
4754;SDS011;2391;47.212;7.542;2024-03-23T04:20:31;2.73;;;1.77;;
4754;SDS011;2391;47.212;7.542;2024-03-23T04:22:58;2.10;;;2.00;;
4754;SDS011;2391;47.212;7.542;2024-03-23T04:25:24;2.27;;;1.90;;
4754;SDS011;2391;47.212;7.542;2024-03-23T04:27:50;4.00;;;2.00;;
4754;SDS011;2391;47.212;7.542;2024-03-23T04:30:16;3.00;;;2.30;;
4754;SDS011;2391;47.212;7.542;2024-03-23T04:32:43;1.87;;;1.77;;
4754;SDS011;2391;47.212;7.542;2024-03-23T04:35:09;3.40;;;2.40;;
4754;SDS011;2391;47.212;7.542;2024-03-23T04:37:35;6.10;;;2.30;;
4754;SDS011;2391;47.212;7.542;2024-03-23T04:40:02;4.37;;;2.30;;
4754;SDS011;2391;47.212;7.542;2024-03-23T04:42:28;1.97;;;1.87;;
4754;SDS011;2391;47.212;7.542;2024-03-23T04:44:55;3.37;;;2.27;;
4754;SDS011;2391;47.212;7.542;2024-03-23T04:47:21;2.60;;;2.40;;
4754;SDS011;2391;47.212;7.542;2024-03-23T04:49:46;2.33;;;2.13;;
4754;SDS011;2391;47.212;7.542;2024-03-23T04:52:12;3.53;;;2.10;;
4754;SDS011;2391;47.212;7.542;2024-03-23T04:54:38;5.47;;;2.40;;
4754;SDS011;2391;47.212;7.542;2024-03-23T04:57:05;3.20;;;2.27;;
4754;SDS011;2391;47.212;7.542;2024-03-23T04:59:32;2.07;;;1.97;;
4754;SDS011;2391;47.212;7.542;2024-03-23T05:01:59;2.20;;;2.10;;
4754;SDS011;2391;47.212;7.542;2024-03-23T05:04:25;2.37;;;2.20;;
4754;SDS011;2391;47.212;7.542;2024-03-23T05:06:51;2.10;;;2.00;;
4754;SDS011;2391;47.212;7.542;2024-03-23T05:09:17;11.67;;;1.80;;
4754;SDS011;2391;47.212;7.542;2024-03-23T05:11:43;4.03;;;2.00;;
4754;SDS011;2391;47.212;7.542;2024-03-23T05:14:08;4.07;;;1.93;;
4754;SDS011;2391;47.212;7.542;2024-03-23T05:16:34;2.80;;;1.70;;
4754;SDS011;2391;47.212;7.542;2024-03-23T05:19:00;4.63;;;2.03;;
4754;SDS011;2391;47.212;7.542;2024-03-23T05:21:26;1.63;;;1.53;;
4754;SDS011;2391;47.212;7.542;2024-03-23T05:23:54;2.90;;;1.63;;
4754;SDS011;2391;47.212;7.542;2024-03-23T05:26:20;1.67;;;1.57;;
4754;SDS011;2391;47.212;7.542;2024-03-23T05:28:47;3.53;;;2.93;;
4754;SDS011;2391;47.212;7.542;2024-03-23T05:31:22;2.30;;;2.00;;
4754;SDS011;2391;47.212;7.542;2024-03-23T05:33:50;2.00;;;1.90;;
4754;SDS011;2391;47.212;7.542;2024-03-23T05:36:17;2.30;;;2.10;;
4754;SDS011;2391;47.212;7.542;2024-03-23T05:38:43;2.10;;;1.90;;
4754;SDS011;2391;47.212;7.542;2024-03-23T05:41:09;3.13;;;2.33;;
4754;SDS011;2391;47.212;7.542;2024-03-23T05:43:35;2.23;;;2.10;;
4754;SDS011;2391;47.212;7.542;2024-03-23T05:46:01;5.50;;;1.83;;
4754;SDS011;2391;47.212;7.542;2024-03-23T05:48:28;9.17;;;2.23;;
4754;SDS011;2391;47.212;7.542;2024-03-23T05:50:56;2.83;;;1.73;;
4754;SDS011;2391;47.212;7.542;2024-03-23T05:53:22;1.90;;;1.67;;
4754;SDS011;2391;47.212;7.542;2024-03-23T05:55:49;2.00;;;1.90;;
4754;SDS011;2391;47.212;7.542;2024-03-23T05:58:16;6.23;;;2.40;;
4754;SDS011;2391;47.212;7.542;2024-03-23T06:00:43;2.13;;;1.80;;
4754;SDS011;2391;47.212;7.542;2024-03-23T06:03:09;4.13;;;1.77;;
4754;SDS011;2391;47.212;7.542;2024-03-23T06:05:36;2.90;;;1.97;;
4754;SDS011;2391;47.212;7.542;2024-03-23T06:08:05;1.60;;;1.50;;
4754;SDS011;2391;47.212;7.542;2024-03-23T06:10:33;2.50;;;1.40;;
4754;SDS011;2391;47.212;7.542;2024-03-23T06:12:59;4.73;;;1.20;;
4754;SDS011;2391;47.212;7.542;2024-03-23T06:15:25;1.37;;;1.27;;
4754;SDS011;2391;47.212;7.542;2024-03-23T06:17:52;1.57;;;1.30;;
4754;SDS011;2391;47.212;7.542;2024-03-23T06:20:18;2.03;;;1.27;;
4754;SDS011;2391;47.212;7.542;2024-03-23T06:22:44;1.17;;;1.07;;
4754;SDS011;2391;47.212;7.542;2024-03-23T06:25:10;1.03;;;1.03;;
4754;SDS011;2391;47.212;7.542;2024-03-23T06:27:37;0.80;;;0.80;;
4754;SDS011;2391;47.212;7.542;2024-03-23T06:30:05;0.80;;;0.80;;
4754;SDS011;2391;47.212;7.542;2024-03-23T06:32:31;1.23;;;0.70;;
4754;SDS011;2391;47.212;7.542;2024-03-23T06:34:57;1.17;;;0.50;;
4754;SDS011;2391;47.212;7.542;2024-03-23T06:37:23;0.50;;;0.50;;
4754;SDS011;2391;47.212;7.542;2024-03-23T06:39:49;0.80;;;0.80;;
4754;SDS011;2391;47.212;7.542;2024-03-23T06:42:14;0.50;;;0.50;;
4754;SDS011;2391;47.212;7.542;2024-03-23T06:44:40;0.60;;;0.60;;
4754;SDS011;2391;47.212;7.542;2024-03-23T06:47:06;0.60;;;0.60;;
4754;SDS011;2391;47.212;7.542;2024-03-23T06:49:32;0.40;;;0.40;;
4754;SDS011;2391;47.212;7.542;2024-03-23T06:51:57;0.60;;;0.60;;
4754;SDS011;2391;47.212;7.542;2024-03-23T06:54:24;0.87;;;0.53;;
4754;SDS011;2391;47.212;7.542;2024-03-23T06:56:50;1.37;;;0.50;;
4754;SDS011;2391;47.212;7.542;2024-03-23T06:59:16;0.70;;;0.70;;
4754;SDS011;2391;47.212;7.542;2024-03-23T07:01:43;0.43;;;0.43;;
4754;SDS011;2391;47.212;7.542;2024-03-23T07:04:08;0.47;;;0.47;;
4754;SDS011;2391;47.212;7.542;2024-03-23T07:06:34;0.40;;;0.40;;
4754;SDS011;2391;47.212;7.542;2024-03-23T07:09:04;0.50;;;0.50;;
4754;SDS011;2391;47.212;7.542;2024-03-23T07:11:29;0.43;;;0.43;;
4754;SDS011;2391;47.212;7.542;2024-03-23T07:13:55;1.10;;;0.60;;
4754;SDS011;2391;47.212;7.542;2024-03-23T07:16:22;0.60;;;0.60;;
4754;SDS011;2391;47.212;7.542;2024-03-23T07:18:49;0.60;;;0.60;;
4754;SDS011;2391;47.212;7.542;2024-03-23T07:21:16;1.07;;;0.60;;
4754;SDS011;2391;47.212;7.542;2024-03-23T07:23:42;0.60;;;0.60;;
4754;SDS011;2391;47.212;7.542;2024-03-23T07:26:11;0.47;;;0.47;;
4754;SDS011;2391;47.212;7.542;2024-03-23T07:28:37;0.30;;;0.30;;
4754;SDS011;2391;47.212;7.542;2024-03-23T07:31:06;0.40;;;0.40;;
4754;SDS011;2391;47.212;7.542;2024-03-23T07:33:46;0.30;;;0.30;;
4754;SDS011;2391;47.212;7.542;2024-03-23T07:36:13;1.33;;;0.40;;
4754;SDS011;2391;47.212;7.542;2024-03-23T07:38:42;0.30;;;0.30;;
4754;SDS011;2391;47.212;7.542;2024-03-23T07:41:12;0.20;;;0.20;;
4754;SDS011;2391;47.212;7.542;2024-03-23T07:43:43;0.20;;;0.20;;
4754;SDS011;2391;47.212;7.542;2024-03-23T07:46:10;0.20;;;0.20;;
4754;SDS011;2391;47.212;7.542;2024-03-23T07:48:37;0.23;;;0.23;;
4754;SDS011;2391;47.212;7.542;2024-03-23T07:51:04;0.20;;;0.20;;
4754;SDS011;2391;47.212;7.542;2024-03-23T07:53:32;0.20;;;0.20;;
4754;SDS011;2391;47.212;7.542;2024-03-23T07:55:59;0.77;;;0.30;;
4754;SDS011;2391;47.212;7.542;2024-03-23T07:58:27;0.37;;;0.30;;
4754;SDS011;2391;47.212;7.542;2024-03-23T08:00:53;1.20;;;0.27;;
4754;SDS011;2391;47.212;7.542;2024-03-23T08:03:20;0.27;;;0.27;;
4754;SDS011;2391;47.212;7.542;2024-03-23T08:05:45;0.80;;;0.20;;
4754;SDS011;2391;47.212;7.542;2024-03-23T08:08:12;0.40;;;0.30;;
4754;SDS011;2391;47.212;7.542;2024-03-23T08:10:50;0.27;;;0.27;;
4754;SDS011;2391;47.212;7.542;2024-03-23T08:13:17;1.00;;;0.50;;
4754;SDS011;2391;47.212;7.542;2024-03-23T08:15:44;0.30;;;0.30;;
4754;SDS011;2391;47.212;7.542;2024-03-23T08:18:11;0.30;;;0.30;;
4754;SDS011;2391;47.212;7.542;2024-03-23T08:20:38;0.97;;;0.33;;
4754;SDS011;2391;47.212;7.542;2024-03-23T08:23:07;0.60;;;0.30;;
4754;SDS011;2391;47.212;7.542;2024-03-23T08:25:33;0.30;;;0.30;;
4754;SDS011;2391;47.212;7.542;2024-03-23T08:28:00;0.30;;;0.30;;
4754;SDS011;2391;47.212;7.542;2024-03-23T08:30:26;1.27;;;0.50;;
4754;SDS011;2391;47.212;7.542;2024-03-23T08:32:53;0.50;;;0.50;;
4754;SDS011;2391;47.212;7.542;2024-03-23T08:35:19;1.40;;;0.40;;
4754;SDS011;2391;47.212;7.542;2024-03-23T08:37:45;0.97;;;0.40;;
4754;SDS011;2391;47.212;7.542;2024-03-23T08:40:12;3.43;;;0.50;;
4754;SDS011;2391;47.212;7.542;2024-03-23T08:42:38;2.00;;;0.40;;
4754;SDS011;2391;47.212;7.542;2024-03-23T08:45:04;1.00;;;0.40;;
4754;SDS011;2391;47.212;7.542;2024-03-23T08:47:33;0.47;;;0.40;;
4754;SDS011;2391;47.212;7.542;2024-03-23T08:50:00;0.97;;;0.60;;
4754;SDS011;2391;47.212;7.542;2024-03-23T08:52:26;0.53;;;0.40;;
4754;SDS011;2391;47.212;7.542;2024-03-23T08:54:53;2.30;;;0.50;;
4754;SDS011;2391;47.212;7.542;2024-03-23T08:57:19;3.30;;;0.60;;
4754;SDS011;2391;47.212;7.542;2024-03-23T08:59:45;0.60;;;0.60;;
4754;SDS011;2391;47.212;7.542;2024-03-23T09:02:11;1.47;;;0.47;;
4754;SDS011;2391;47.212;7.542;2024-03-23T09:04:36;1.77;;;0.60;;
4754;SDS011;2391;47.212;7.542;2024-03-23T09:07:02;1.90;;;0.77;;
4754;SDS011;2391;47.212;7.542;2024-03-23T09:09:28;0.70;;;0.63;;
4754;SDS011;2391;47.212;7.542;2024-03-23T09:11:54;1.57;;;0.70;;
4754;SDS011;2391;47.212;7.542;2024-03-23T09:14:21;2.10;;;0.87;;
4754;SDS011;2391;47.212;7.542;2024-03-23T09:16:52;1.07;;;0.60;;
4754;SDS011;2391;47.212;7.542;2024-03-23T09:19:16;2.80;;;0.60;;
4754;SDS011;2391;47.212;7.542;2024-03-23T09:21:43;0.83;;;0.60;;
4754;SDS011;2391;47.212;7.542;2024-03-23T09:24:09;1.47;;;0.70;;
4754;SDS011;2391;47.212;7.542;2024-03-23T09:26:35;2.83;;;0.77;;
4754;SDS011;2391;47.212;7.542;2024-03-23T09:29:00;4.17;;;0.80;;
4754;SDS011;2391;47.212;7.542;2024-03-23T09:31:26;0.90;;;0.60;;
4754;SDS011;2391;47.212;7.542;2024-03-23T09:33:52;2.63;;;0.87;;
4754;SDS011;2391;47.212;7.542;2024-03-23T09:36:18;2.30;;;0.90;;
4754;SDS011;2391;47.212;7.542;2024-03-23T09:38:43;1.00;;;0.60;;
4754;SDS011;2391;47.212;7.542;2024-03-23T09:41:09;1.50;;;0.53;;
4754;SDS011;2391;47.212;7.542;2024-03-23T09:43:35;1.70;;;0.70;;
4754;SDS011;2391;47.212;7.542;2024-03-23T09:46:01;1.40;;;0.43;;
4754;SDS011;2391;47.212;7.542;2024-03-23T09:48:28;2.53;;;0.70;;
4754;SDS011;2391;47.212;7.542;2024-03-23T09:50:54;1.33;;;0.80;;
4754;SDS011;2391;47.212;7.542;2024-03-23T09:53:19;1.80;;;0.73;;
4754;SDS011;2391;47.212;7.542;2024-03-23T09:55:45;2.10;;;0.60;;
4754;SDS011;2391;47.212;7.542;2024-03-23T09:58:16;0.80;;;0.80;;
4754;SDS011;2391;47.212;7.542;2024-03-23T10:00:43;3.07;;;0.80;;
4754;SDS011;2391;47.212;7.542;2024-03-23T10:03:09;1.80;;;0.73;;
4754;SDS011;2391;47.212;7.542;2024-03-23T10:05:37;0.60;;;0.60;;
4754;SDS011;2391;47.212;7.542;2024-03-23T10:08:17;0.80;;;0.53;;
4754;SDS011;2391;47.212;7.542;2024-03-23T10:10:45;0.93;;;0.60;;
4754;SDS011;2391;47.212;7.542;2024-03-23T10:13:28;2.87;;;0.70;;
4754;SDS011;2391;47.212;7.542;2024-03-23T10:15:57;1.40;;;0.50;;
4754;SDS011;2391;47.212;7.542;2024-03-23T10:18:28;2.93;;;0.70;;
4754;SDS011;2391;47.212;7.542;2024-03-23T10:23:41;2.83;;;0.60;;
4754;SDS011;2391;47.212;7.542;2024-03-23T10:26:14;0.83;;;0.60;;
4754;SDS011;2391;47.212;7.542;2024-03-23T10:29:01;1.90;;;0.60;;
4754;SDS011;2391;47.212;7.542;2024-03-23T10:31:36;1.07;;;0.60;;
4754;SDS011;2391;47.212;7.542;2024-03-23T10:34:03;1.93;;;0.60;;
4754;SDS011;2391;47.212;7.542;2024-03-23T10:36:29;1.00;;;0.80;;
4754;SDS011;2391;47.212;7.542;2024-03-23T10:38:56;1.90;;;0.73;;
4754;SDS011;2391;47.212;7.542;2024-03-23T10:41:28;1.23;;;0.70;;
4754;SDS011;2391;47.212;7.542;2024-03-23T10:43:53;1.53;;;0.67;;
4754;SDS011;2391;47.212;7.542;2024-03-23T10:46:21;1.53;;;0.80;;
4754;SDS011;2391;47.212;7.542;2024-03-23T10:48:47;1.33;;;0.70;;
4754;SDS011;2391;47.212;7.542;2024-03-23T10:51:14;2.00;;;0.70;;
4754;SDS011;2391;47.212;7.542;2024-03-23T10:53:40;5.17;;;0.87;;
4754;SDS011;2391;47.212;7.542;2024-03-23T10:56:06;3.83;;;0.63;;
4754;SDS011;2391;47.212;7.542;2024-03-23T10:58:37;2.73;;;0.70;;
4754;SDS011;2391;47.212;7.542;2024-03-23T11:01:05;0.77;;;0.70;;
4754;SDS011;2391;47.212;7.542;2024-03-23T11:03:35;1.70;;;0.70;;
4754;SDS011;2391;47.212;7.542;2024-03-23T11:06:03;2.47;;;0.70;;
4754;SDS011;2391;47.212;7.542;2024-03-23T11:08:36;2.47;;;0.80;;
4754;SDS011;2391;47.212;7.542;2024-03-23T11:13:48;3.03;;;0.70;;
4754;SDS011;2391;47.212;7.542;2024-03-23T11:18:44;1.00;;;0.70;;
4754;SDS011;2391;47.212;7.542;2024-03-23T11:21:10;2.23;;;0.80;;
4754;SDS011;2391;47.212;7.542;2024-03-23T11:23:36;2.83;;;0.70;;
4754;SDS011;2391;47.212;7.542;2024-03-23T11:26:03;2.30;;;0.53;;
4754;SDS011;2391;47.212;7.542;2024-03-23T11:28:32;2.13;;;0.60;;
4754;SDS011;2391;47.212;7.542;2024-03-23T11:30:58;1.57;;;0.57;;
4754;SDS011;2391;47.212;7.542;2024-03-23T11:33:24;2.90;;;1.13;;
4754;SDS011;2391;47.212;7.542;2024-03-23T11:35:50;0.60;;;0.60;;
4754;SDS011;2391;47.212;7.542;2024-03-23T11:38:17;0.90;;;0.67;;
4754;SDS011;2391;47.212;7.542;2024-03-23T11:40:45;1.00;;;0.50;;
4754;SDS011;2391;47.212;7.542;2024-03-23T11:43:18;0.63;;;0.40;;
4754;SDS011;2391;47.212;7.542;2024-03-23T11:45:46;1.30;;;0.70;;
4754;SDS011;2391;47.212;7.542;2024-03-23T11:48:14;1.00;;;0.50;;
4754;SDS011;2391;47.212;7.542;2024-03-23T11:50:43;1.80;;;0.77;;
4754;SDS011;2391;47.212;7.542;2024-03-23T11:58:25;1.93;;;0.70;;
4754;SDS011;2391;47.212;7.542;2024-03-23T12:00:55;1.70;;;0.60;;
4754;SDS011;2391;47.212;7.542;2024-03-23T12:03:31;1.60;;;0.60;;
4754;SDS011;2391;47.212;7.542;2024-03-23T12:05:59;4.30;;;0.70;;
4754;SDS011;2391;47.212;7.542;2024-03-23T12:08:33;3.23;;;0.77;;
4754;SDS011;2391;47.212;7.542;2024-03-23T12:11:10;5.20;;;0.93;;
4754;SDS011;2391;47.212;7.542;2024-03-23T12:13:38;2.17;;;0.80;;
4754;SDS011;2391;47.212;7.542;2024-03-23T12:16:10;1.43;;;0.70;;
4754;SDS011;2391;47.212;7.542;2024-03-23T12:18:48;1.47;;;0.80;;
4754;SDS011;2391;47.212;7.542;2024-03-23T12:21:12;3.43;;;0.80;;
4754;SDS011;2391;47.212;7.542;2024-03-23T12:23:41;1.80;;;0.50;;
4754;SDS011;2391;47.212;7.542;2024-03-23T12:26:09;5.03;;;0.70;;
4754;SDS011;2391;47.212;7.542;2024-03-23T12:28:35;2.07;;;0.60;;
4754;SDS011;2391;47.212;7.542;2024-03-23T12:31:03;1.67;;;0.70;;
4754;SDS011;2391;47.212;7.542;2024-03-23T12:33:29;1.23;;;0.53;;
4754;SDS011;2391;47.212;7.542;2024-03-23T12:35:54;1.13;;;0.60;;
4754;SDS011;2391;47.212;7.542;2024-03-23T12:38:20;2.10;;;0.53;;
4754;SDS011;2391;47.212;7.542;2024-03-23T12:40:46;1.70;;;0.50;;
4754;SDS011;2391;47.212;7.542;2024-03-23T12:43:13;7.10;;;0.80;;
4754;SDS011;2391;47.212;7.542;2024-03-23T12:45:39;1.50;;;0.60;;
4754;SDS011;2391;47.212;7.542;2024-03-23T12:48:05;1.43;;;0.87;;
4754;SDS011;2391;47.212;7.542;2024-03-23T12:50:32;4.57;;;0.60;;
4754;SDS011;2391;47.212;7.542;2024-03-23T12:52:57;2.10;;;0.50;;
4754;SDS011;2391;47.212;7.542;2024-03-23T12:55:23;2.23;;;0.93;;
4754;SDS011;2391;47.212;7.542;2024-03-23T12:57:50;1.30;;;0.80;;
4754;SDS011;2391;47.212;7.542;2024-03-23T13:00:15;2.30;;;0.73;;
4754;SDS011;2391;47.212;7.542;2024-03-23T13:02:42;1.23;;;0.50;;
4754;SDS011;2391;47.212;7.542;2024-03-23T13:05:08;2.60;;;0.70;;
4754;SDS011;2391;47.212;7.542;2024-03-23T13:07:34;3.13;;;0.70;;
4754;SDS011;2391;47.212;7.542;2024-03-23T13:10:00;0.80;;;0.53;;
4754;SDS011;2391;47.212;7.542;2024-03-23T13:12:27;2.60;;;0.60;;
4754;SDS011;2391;47.212;7.542;2024-03-23T13:14:53;2.93;;;0.97;;
4754;SDS011;2391;47.212;7.542;2024-03-23T13:17:19;2.57;;;0.60;;
4754;SDS011;2391;47.212;7.542;2024-03-23T13:19:44;0.97;;;0.60;;
4754;SDS011;2391;47.212;7.542;2024-03-23T13:22:10;0.50;;;0.40;;
4754;SDS011;2391;47.212;7.542;2024-03-23T13:24:37;3.60;;;0.70;;
4754;SDS011;2391;47.212;7.542;2024-03-23T13:27:04;2.20;;;0.80;;
4754;SDS011;2391;47.212;7.542;2024-03-23T13:29:32;1.80;;;0.70;;
4754;SDS011;2391;47.212;7.542;2024-03-23T13:31:58;0.90;;;0.70;;
4754;SDS011;2391;47.212;7.542;2024-03-23T13:34:24;1.20;;;0.50;;
4754;SDS011;2391;47.212;7.542;2024-03-23T13:36:49;2.07;;;0.80;;
4754;SDS011;2391;47.212;7.542;2024-03-23T13:39:15;0.90;;;0.57;;
4754;SDS011;2391;47.212;7.542;2024-03-23T13:41:42;2.47;;;1.00;;
4754;SDS011;2391;47.212;7.542;2024-03-23T13:44:09;1.43;;;0.70;;
4754;SDS011;2391;47.212;7.542;2024-03-23T13:46:37;2.40;;;0.80;;
4754;SDS011;2391;47.212;7.542;2024-03-23T13:49:03;2.00;;;0.50;;
4754;SDS011;2391;47.212;7.542;2024-03-23T13:51:32;2.87;;;0.80;;
4754;SDS011;2391;47.212;7.542;2024-03-23T13:53:58;3.87;;;0.60;;
4754;SDS011;2391;47.212;7.542;2024-03-23T13:56:27;2.33;;;0.80;;
4754;SDS011;2391;47.212;7.542;2024-03-23T13:58:58;1.90;;;0.60;;
4754;SDS011;2391;47.212;7.542;2024-03-23T14:01:22;0.73;;;0.67;;
4754;SDS011;2391;47.212;7.542;2024-03-23T14:03:48;1.87;;;0.70;;
4754;SDS011;2391;47.212;7.542;2024-03-23T14:06:14;1.13;;;0.70;;
4754;SDS011;2391;47.212;7.542;2024-03-23T14:08:40;2.73;;;0.60;;
4754;SDS011;2391;47.212;7.542;2024-03-23T14:11:07;5.30;;;0.60;;
4754;SDS011;2391;47.212;7.542;2024-03-23T14:13:34;2.47;;;0.67;;
4754;SDS011;2391;47.212;7.542;2024-03-23T14:16:00;2.93;;;0.83;;
4754;SDS011;2391;47.212;7.542;2024-03-23T14:18:27;4.80;;;0.70;;
4754;SDS011;2391;47.212;7.542;2024-03-23T14:20:57;2.87;;;0.80;;
4754;SDS011;2391;47.212;7.542;2024-03-23T14:23:28;0.90;;;0.63;;
4754;SDS011;2391;47.212;7.542;2024-03-23T14:25:58;1.30;;;0.60;;
4754;SDS011;2391;47.212;7.542;2024-03-23T14:28:24;2.33;;;0.60;;
4754;SDS011;2391;47.212;7.542;2024-03-23T14:30:50;1.53;;;0.50;;
4754;SDS011;2391;47.212;7.542;2024-03-23T14:33:17;1.73;;;0.60;;
4754;SDS011;2391;47.212;7.542;2024-03-23T14:35:43;1.03;;;0.60;;
4754;SDS011;2391;47.212;7.542;2024-03-23T14:38:11;0.90;;;0.60;;
4754;SDS011;2391;47.212;7.542;2024-03-23T14:40:37;1.07;;;0.50;;
4754;SDS011;2391;47.212;7.542;2024-03-23T14:43:03;2.10;;;0.73;;
4754;SDS011;2391;47.212;7.542;2024-03-23T14:45:29;1.53;;;0.50;;
4754;SDS011;2391;47.212;7.542;2024-03-23T14:47:54;4.80;;;0.60;;
4754;SDS011;2391;47.212;7.542;2024-03-23T14:50:20;1.80;;;0.70;;
4754;SDS011;2391;47.212;7.542;2024-03-23T14:52:47;0.90;;;0.50;;
4754;SDS011;2391;47.212;7.542;2024-03-23T14:55:13;2.57;;;0.53;;
4754;SDS011;2391;47.212;7.542;2024-03-23T14:57:39;2.83;;;0.60;;
4754;SDS011;2391;47.212;7.542;2024-03-23T15:00:10;2.30;;;0.50;;
4754;SDS011;2391;47.212;7.542;2024-03-23T15:02:34;1.53;;;0.67;;
4754;SDS011;2391;47.212;7.542;2024-03-23T15:05:00;2.83;;;0.60;;
4754;SDS011;2391;47.212;7.542;2024-03-23T15:07:26;1.03;;;0.50;;
4754;SDS011;2391;47.212;7.542;2024-03-23T15:09:53;1.37;;;0.77;;
4754;SDS011;2391;47.212;7.542;2024-03-23T15:12:19;1.90;;;0.67;;
4754;SDS011;2391;47.212;7.542;2024-03-23T15:14:46;0.83;;;0.43;;
4754;SDS011;2391;47.212;7.542;2024-03-23T15:17:12;0.97;;;0.47;;
4754;SDS011;2391;47.212;7.542;2024-03-23T15:19:38;2.13;;;0.63;;
4754;SDS011;2391;47.212;7.542;2024-03-23T15:22:04;0.90;;;0.57;;
4754;SDS011;2391;47.212;7.542;2024-03-23T15:24:30;2.73;;;0.57;;
4754;SDS011;2391;47.212;7.542;2024-03-23T15:26:57;3.50;;;0.70;;
4754;SDS011;2391;47.212;7.542;2024-03-23T15:29:22;2.63;;;0.50;;
4754;SDS011;2391;47.212;7.542;2024-03-23T15:31:48;1.37;;;0.43;;
4754;SDS011;2391;47.212;7.542;2024-03-23T15:34:16;1.23;;;0.60;;
4754;SDS011;2391;47.212;7.542;2024-03-23T15:36:42;2.50;;;0.70;;
4754;SDS011;2391;47.212;7.542;2024-03-23T15:39:09;1.27;;;0.50;;
4754;SDS011;2391;47.212;7.542;2024-03-23T15:41:35;3.37;;;0.50;;
4754;SDS011;2391;47.212;7.542;2024-03-23T15:44:01;1.63;;;0.97;;
4754;SDS011;2391;47.212;7.542;2024-03-23T15:46:27;1.50;;;0.73;;
4754;SDS011;2391;47.212;7.542;2024-03-23T15:48:53;1.07;;;0.50;;
4754;SDS011;2391;47.212;7.542;2024-03-23T15:51:20;0.70;;;0.40;;
4754;SDS011;2391;47.212;7.542;2024-03-23T15:53:46;1.90;;;0.70;;
4754;SDS011;2391;47.212;7.542;2024-03-23T15:56:11;0.93;;;0.40;;
4754;SDS011;2391;47.212;7.542;2024-03-23T15:58:38;1.00;;;0.60;;
4754;SDS011;2391;47.212;7.542;2024-03-23T16:01:05;1.03;;;0.50;;
4754;SDS011;2391;47.212;7.542;2024-03-23T16:03:35;0.90;;;0.70;;
4754;SDS011;2391;47.212;7.542;2024-03-23T16:06:03;0.50;;;0.50;;
4754;SDS011;2391;47.212;7.542;2024-03-23T16:08:30;3.67;;;0.70;;
4754;SDS011;2391;47.212;7.542;2024-03-23T16:11:00;2.20;;;0.60;;
4754;SDS011;2391;47.212;7.542;2024-03-23T16:13:28;0.93;;;0.40;;
4754;SDS011;2391;47.212;7.542;2024-03-23T16:15:54;3.33;;;0.60;;
4754;SDS011;2391;47.212;7.542;2024-03-23T16:18:22;3.10;;;0.90;;